createdAt,value
2022-11-25T00:00:25.161Z,5.1
2022-11-25T00:20:26.733Z,5.5
2022-11-25T00:30:27.039Z,5.8
2022-11-25T00:50:27.900Z,6.2
2022-11-25T01:00:28.386Z,6.3
2022-11-25T01:20:29.966Z,6.6
2022-11-25T01:30:31.010Z,6.7
2022-11-25T01:40:32.102Z,6.8
2022-11-25T01:50:33.163Z,6.9
2022-11-25T02:00:33.302Z,7
2022-11-25T02:10:34.014Z,7
2022-11-25T02:10:55.955Z,7
2022-11-25T02:20:40.560Z,7.1
2022-11-25T02:30:41.232Z,7
2022-11-25T02:40:41.526Z,7.3
2022-11-25T02:50:42.363Z,7.5
2022-11-25T03:10:43.470Z,7.8
2022-11-25T03:40:45.539Z,7.6
2022-11-25T04:00:46.968Z,7.4
2022-11-25T04:10:47.388Z,7.5
2022-11-25T05:10:51.028Z,8.4
2022-11-25T05:20:51.230Z,8.6
2022-11-25T05:30:51.582Z,8.7
2022-11-25T05:40:52.165Z,8.8
2022-11-25T05:50:52.400Z,9
2022-11-25T06:00:52.721Z,8.9
2022-11-25T06:10:53.768Z,8.9
2022-11-25T06:20:54.202Z,8.9
2022-11-25T06:30:54.827Z,8.9
2022-11-25T06:40:59.141Z,8.8
2022-11-25T06:50:55.419Z,8.7
2022-11-25T07:00:56.388Z,8.7
2022-11-25T07:10:57.332Z,8.7
2022-11-25T07:20:57.645Z,8.6
2022-11-25T07:31:23.094Z,8.5
2022-11-25T07:40:59.023Z,8.5
2022-11-25T07:50:59.288Z,8.6
2022-11-25T08:00:59.692Z,8.6
2022-11-25T08:11:00.321Z,8.6
2022-11-25T08:21:00.839Z,8.6
2022-11-25T08:31:01.340Z,8.6
2022-11-25T08:41:01.932Z,8.6
2022-11-25T08:51:02.441Z,8.7
2022-11-25T09:01:02.576Z,9
2022-11-25T09:11:03.258Z,9.2
2022-11-25T09:21:03.434Z,9.4
2022-11-25T09:31:03.865Z,9.6
2022-11-25T09:41:04.485Z,9.9
2022-11-25T09:51:05.202Z,10.1
2022-11-25T10:01:05.340Z,10.1
2022-11-25T10:11:05.564Z,10.2
2022-11-25T10:21:06.162Z,10.1
2022-11-25T10:41:07.156Z,10.6
2022-11-25T10:51:07.354Z,10.7
2022-11-25T11:01:07.602Z,10.6
2022-11-25T11:11:07.725Z,10.9
2022-11-25T11:21:08.635Z,10.8
2022-11-25T11:31:09.585Z,11
2022-11-25T11:41:09.710Z,11.4
2022-11-25T11:51:10.189Z,11.4
2022-11-25T12:01:10.583Z,11.5
2022-11-25T12:11:11.204Z,11.6
2022-11-25T12:21:11.535Z,11.5
2022-11-25T12:31:12.037Z,11.5
2022-11-25T12:41:13.063Z,11.4
2022-11-25T12:51:14.030Z,11.3
2022-11-25T13:01:14.318Z,11.3
2022-11-25T13:11:14.633Z,11.3
2022-11-25T13:21:14.625Z,11.3
2022-11-25T13:31:14.919Z,11.2
2022-11-25T13:41:15.470Z,11.2
2022-11-25T13:51:15.668Z,11.1
2022-11-25T14:11:16.992Z,11.1
2022-11-25T14:21:17.807Z,11.1
2022-11-25T14:31:18.705Z,11
2022-11-25T14:41:19.090Z,10.8
2022-11-25T14:51:19.737Z,10.8
2022-11-25T15:01:20.589Z,10.7
2022-11-25T15:11:20.912Z,10.6
2022-11-25T15:21:21.478Z,10.6
2022-11-25T15:31:22.137Z,10.6
2022-11-25T15:41:23.080Z,10.6
2022-11-25T15:51:23.380Z,10.6
2022-11-25T16:01:24.198Z,10.6
2022-11-25T16:11:24.766Z,10.5
2022-11-25T16:21:25.680Z,10.4
2022-11-25T16:31:26.242Z,10.3
2022-11-25T16:41:27.063Z,10
2022-11-25T16:51:27.961Z,9.8
2022-11-25T17:01:28.703Z,9.8
2022-11-25T17:11:29.269Z,9.7
2022-11-25T17:21:29.950Z,9.6
2022-11-25T17:31:30.773Z,9.5
2022-11-25T17:41:34.245Z,9.5
2022-11-25T17:51:32.140Z,9.4
2022-11-25T18:01:33.029Z,9.4
2022-11-25T18:11:33.787Z,9.3
2022-11-25T18:21:33.971Z,9.4
2022-11-25T18:31:34.723Z,9.3
2022-11-25T18:41:34.868Z,9.3
2022-11-25T18:51:35.394Z,9.2
2022-11-25T19:01:36.064Z,9.1
2022-11-25T19:11:36.782Z,9
2022-11-25T19:21:37.304Z,9
2022-11-25T19:31:37.810Z,8.9
2022-11-25T20:01:38.891Z,8.8
2022-11-25T20:11:39.852Z,8.6
2022-11-25T20:21:39.862Z,8.4
2022-11-25T20:31:40.836Z,8.2
2022-11-25T20:41:41.781Z,7.9
2022-11-25T20:51:42.218Z,7.7
2022-11-25T21:11:43.703Z,7.5
2022-11-25T21:21:43.922Z,7.4
2022-11-25T21:31:44.098Z,7.2
2022-11-25T21:41:44.220Z,7
2022-11-25T21:51:44.967Z,6.8
2022-11-25T22:01:45.711Z,6.7
2022-11-25T22:11:45.972Z,6.6
2022-11-25T22:21:46.182Z,6.6
2022-11-25T22:31:46.582Z,6.6
2022-11-25T22:41:47.417Z,6.5
2022-11-25T22:51:47.620Z,6.3
2022-11-25T23:01:48.557Z,6.3
2022-11-25T23:11:49.241Z,6.2
2022-11-25T23:21:49.982Z,5.9
2022-11-25T23:31:50.288Z,5.6
2022-11-25T23:41:51.315Z,5.5
2022-11-25T23:51:51.661Z,5.4
